Time;durP1;ratioP1;P1;durP2;ratioP2;P2;SDS_P1;SDS_P2;PMS_P1;PMS_P2;Temp;Humidity;BMP_temperature;BMP_pressure;BME280_temperature;BME280_humidity;BME280_pressure;Samples;Min_cycle;Max_cycle;Signal;HPM_P1;HPM_P2
2022/12/10 00:01:27;;;;;;;54.20;17.80;;;-2.00;99.90;;;;;;6159214;23;20036;-81
2022/12/10 00:03:59;;;;;;;51.15;17.05;;;0.60;99.90;;;;;;6172523;23;20017;-81
2022/12/10 00:07:02;;;;;;;49.97;17.33;;;-0.70;99.90;;;;;;6188176;23;20009;-81
2022/12/10 00:10:08;;;;;;;56.75;17.85;;;-1.40;99.90;;;;;;6123438;23;20017;-81
2022/12/10 00:12:37;;;;;;;45.05;16.73;;;-1.80;99.90;;;;;;6137804;23;20330;-80
2022/12/10 00:15:15;;;;;;;50.97;16.90;;;0.00;99.90;;;;;;6149828;23;20018;-81
2022/12/10 00:17:57;;;;;;;44.25;16.08;;;-2.50;99.90;;;;;;6139473;23;20032;-81
2022/12/10 00:20:30;;;;;;;49.33;16.40;;;-0.10;99.90;;;;;;6198270;23;20017;-81
2022/12/10 00:23:07;;;;;;;48.35;17.30;;;-0.30;99.90;;;;;;6171270;23;20024;-81
2022/12/10 00:25:41;;;;;;;46.40;16.92;;;-1.30;99.90;;;;;;6198288;23;20024;-81
2022/12/10 00:28:12;;;;;;;51.00;17.10;;;-1.40;99.90;;;;;;6162178;23;20016;-81
2022/12/10 00:30:42;;;;;;;44.70;16.48;;;-2.10;99.90;;;;;;6171015;23;20061;-81
2022/12/10 00:33:14;;;;;;;46.55;16.45;;;-2.10;99.90;;;;;;6162132;23;20009;-81
2022/12/10 00:35:52;;;;;;;55.08;16.35;;;0.20;99.90;;;;;;6138342;23;20445;-81
2022/12/10 00:38:46;;;;;;;;;;;;;;;;;;;;;
2022/12/10 00:41:19;;;;;;;51.88;15.90;;;-0.30;99.90;;;;;;6162192;23;20017;-80
2022/12/10 00:44:03;;;;;;;43.58;15.45;;;-1.00;99.90;;;;;;6171667;23;20017;-81
2022/12/10 00:46:34;;;;;;;48.67;17.25;;;-1.80;99.90;;;;;;6162703;23;20023;-81
2022/12/10 00:49:07;;;;;;;41.15;16.17;;;0.10;99.90;;;;;;6198231;23;20013;-81
2022/12/10 00:51:46;;;;;;;39.42;15.25;;;-0.70;99.90;;;;;;6196606;23;20033;-81
2022/12/10 00:54:19;;;;;;;47.65;16.20;;;-1.00;99.90;;;;;;6162744;23;20024;-81
2022/12/10 00:57:02;;;;;;;43.35;15.00;;;-0.50;99.90;;;;;;6163579;23;20017;-81
2022/12/10 00:59:55;;;;;;;36.63;14.20;;;0.80;99.90;;;;;;6154980;23;20434;-81
2022/12/10 01:02:34;;;;;;;37.20;15.00;;;-0.20;99.90;;;;;;6110004;23;20435;-81
2022/12/10 01:05:07;;;;;;;47.15;15.27;;;-0.40;99.90;;;;;;6106535;23;20018;-81
2022/12/10 01:07:37;;;;;;;39.85;14.60;;;-2.30;99.90;;;;;;6167981;23;20029;-81
2022/12/10 01:10:07;;;;;;;37.08;14.38;;;-2.20;99.90;;;;;;6156952;23;20326;-81
2022/12/10 01:12:42;;;;;;;46.15;14.70;;;-2.30;99.90;;;;;;6107867;23;20017;-81
2022/12/10 01:16:05;;;;;;;40.72;14.27;;;-0.80;99.90;;;;;;6168418;23;20017;-81
2022/12/10 01:19:35;;;;;;;39.40;14.70;;;-2.40;99.90;;;;;;6040141;23;20027;-82
2022/12/10 01:22:27;;;;;;;44.70;14.68;;;-1.60;99.90;;;;;;6039754;23;20046;-82
2022/12/10 01:25:11;;;;;;;41.63;14.30;;;-0.50;99.90;;;;;;6038156;23;20023;-81
2022/12/10 01:27:48;;;;;;;38.90;14.00;;;-2.30;99.90;;;;;;6017702;23;20023;-82
2022/12/10 01:30:24;;;;;;;45.40;14.00;;;-3.60;99.90;;;;;;6044365;23;20015;-81
2022/12/10 01:33:30;;;;;;;;;;;;;;;;;;;;;
2022/12/10 01:36:49;;;;;;;42.22;14.65;;;-0.70;99.90;;;;;;6068707;23;20025;-81
2022/12/10 01:40:05;;;;;;;41.47;14.88;;;-1.10;99.90;;;;;;6132348;23;20021;-81
2022/12/10 01:47:05;;;;;;;39.00;12.93;;;0.50;99.90;;;;;;6114471;23;20025;-81
2022/12/10 01:53:03;;;;;;;38.25;12.82;;;-0.10;99.90;;;;;;6007631;23;20023;-82
2022/12/10 01:55:46;;;;;;;45.17;13.77;;;0.70;99.90;;;;;;5993541;23;20075;-82
2022/12/10 01:58:45;;;;;;;40.75;13.10;;;-0.60;99.90;;;;;;6014638;23;20020;-81
2022/12/10 02:02:24;;;;;;;44.03;13.80;;;-0.30;99.90;;;;;;5998429;23;20019;-81
2022/12/10 02:05:51;;;;;;;36.35;13.23;;;-2.20;99.90;;;;;;5986142;23;20015;-81
2022/12/10 02:08:40;;;;;;;41.97;13.85;;;-1.20;99.90;;;;;;6051312;23;20025;-81
2022/12/10 02:11:28;;;;;;;41.25;13.52;;;-1.50;99.90;;;;;;6135397;23;20017;-82
2022/12/10 02:14:24;;;;;;;30.58;12.07;;;-1.10;99.90;;;;;;6171968;23;20017;-82
2022/12/10 02:17:25;;;;;;;37.90;12.70;;;-3.40;99.90;;;;;;6117455;23;20418;-82
2022/12/10 02:20:56;;;;;;;35.55;12.32;;;-0.40;99.90;;;;;;6139378;23;20028;-81
2022/12/10 02:23:50;;;;;;;;;;;-2.60;99.90;;;;;;6105463;23;20032;-82
2022/12/10 02:26:43;;;;;;;43.13;12.05;;;0.10;99.90;;;;;;6163790;23;20225;-82
2022/12/10 02:29:22;;;;;;;;;;;-2.60;99.90;;;;;;6164464;23;20322;-82
2022/12/10 02:32:42;;;;;;;34.65;11.88;;;-2.60;99.90;;;;;;6198007;23;20191;-82
2022/12/10 02:39:49;;;;;;;34.95;12.23;;;-1.20;99.90;;;;;;6153318;23;20039;-81
2022/12/10 02:42:28;;;;;;;41.97;13.75;;;-1.40;99.90;;;;;;6162536;23;20430;-81
2022/12/10 02:45:14;;;;;;;40.95;13.40;;;-1.20;99.90;;;;;;6137205;23;20017;-82
2022/12/10 02:48:00;;;;;;;43.20;13.30;;;0.20;99.90;;;;;;6163049;23;20021;-81
2022/12/10 02:51:03;;;;;;;40.78;13.32;;;-1.30;99.90;;;;;;6164237;23;20013;-82
2022/12/10 02:53:43;;;;;;;39.33;12.57;;;-0.80;99.90;;;;;;6162120;23;20024;-81
2022/12/10 02:57:01;;;;;;;;;;;;;;;;;;;;;
2022/12/10 02:59:50;;;;;;;29.40;11.68;;;-2.30;99.90;;;;;;6172101;23;20426;-81
2022/12/10 03:02:53;;;;;;;40.80;13.27;;;-4.20;99.90;;;;;;6174068;23;20040;-81
2022/12/10 03:06:05;;;;;;;38.00;12.18;;;-2.60;99.90;;;;;;6187849;23;20032;-81
2022/12/10 03:09:30;;;;;;;;;;;;;;;;;;;;;
2022/12/10 03:12:21;;;;;;;33.42;12.35;;;-2.10;99.90;;;;;;6134777;23;20016;-81
2022/12/10 03:15:02;;;;;;;37.00;13.25;;;-3.00;99.90;;;;;;6163210;23;20024;-81
2022/12/10 03:17:56;;;;;;;34.08;12.98;;;-1.50;99.90;;;;;;6197873;23;20314;-81
2022/12/10 03:20:34;;;;;;;41.92;13.35;;;-1.40;99.90;;;;;;6198078;23;20013;-81
2022/12/10 03:23:29;;;;;;;32.67;12.77;;;-3.20;99.90;;;;;;6161956;23;20321;-81
2022/12/10 03:26:01;;;;;;;33.15;12.38;;;-0.30;99.90;;;;;;6138845;23;20017;-81
2022/12/10 03:28:40;;;;;;;37.53;12.45;;;-2.60;99.90;;;;;;6198258;23;20009;-81
2022/12/10 03:31:29;;;;;;;32.53;12.60;;;-1.30;99.90;;;;;;6171173;23;20016;-81
2022/12/10 03:34:04;;;;;;;45.60;13.75;;;-2.60;99.90;;;;;;6138711;23;20017;-81
2022/12/10 03:36:36;;;;;;;35.72;12.98;;;-1.60;99.90;;;;;;6197326;23;20016;-81
2022/12/10 03:39:05;;;;;;;42.95;13.65;;;-0.40;99.90;;;;;;6113475;23;20020;-81
2022/12/10 03:41:33;;;;;;;37.00;13.15;;;-3.60;99.90;;;;;;6163325;23;20073;-81
2022/12/10 03:44:12;;;;;;;37.65;12.82;;;-1.50;99.90;;;;;;6187665;23;20105;-82
2022/12/10 03:46:54;;;;;;;39.65;13.13;;;-3.00;99.90;;;;;;6140874;23;20032;-81
2022/12/10 03:49:22;;;;;;;36.28;12.95;;;-0.80;99.90;;;;;;6163533;23;20017;-81
2022/12/10 03:51:50;;;;;;;35.45;13.13;;;-1.00;99.90;;;;;;6187292;23;20418;-81
2022/12/10 03:54:19;;;;;;;38.75;12.27;;;-1.90;99.90;;;;;;6138662;23;20311;-81
2022/12/10 03:56:47;;;;;;;;;;;-1.80;99.90;;;;;;6161930;23;20465;-81
2022/12/10 03:59:15;;;;;;;38.55;11.65;;;-2.80;99.90;;;;;;6162994;23;19923;-81
2022/12/10 04:01:42;;;;;;;31.05;11.65;;;-1.60;99.90;;;;;;6162470;23;20036;-81
2022/12/10 04:04:10;;;;;;;31.20;12.05;;;-1.60;99.90;;;;;;6187225;23;20017;-81
2022/12/10 04:06:40;;;;;;;34.72;12.85;;;-1.40;99.90;;;;;;6172666;23;20017;-81
2022/12/10 04:09:11;;;;;;;40.75;12.43;;;-2.40;99.90;;;;;;6162808;23;20024;-81
2022/12/10 04:11:39;;;;;;;43.28;12.40;;;-1.10;99.90;;;;;;6171174;23;20009;-82
2022/12/10 04:16:55;;;;;;;47.72;13.18;;;-1.10;99.90;;;;;;6185838;23;20017;-81
2022/12/10 04:19:26;;;;;;;40.88;13.20;;;-1.50;99.90;;;;;;6187560;23;20013;-81
2022/12/10 04:27:33;;;;;;;35.63;12.90;;;-1.90;99.90;;;;;;6186583;23;20430;-81
2022/12/10 04:30:01;;;;;;;39.80;12.93;;;-1.60;99.90;;;;;;6197583;23;20318;-81
2022/12/10 04:32:33;;;;;;;35.50;12.75;;;-1.70;99.90;;;;;;6198204;23;20316;-81
2022/12/10 04:35:01;;;;;;;41.42;13.23;;;-0.90;99.90;;;;;;6162443;23;20441;-81
2022/12/10 04:37:29;;;;;;;48.28;14.38;;;-3.50;99.90;;;;;;6112968;23;20017;-81
2022/12/10 04:39:57;;;;;;;;;;;-1.00;99.90;;;;;;6138589;23;20017;-81
2022/12/10 04:42:26;;;;;;;46.05;13.18;;;-2.80;99.90;;;;;;6187846;23;20305;-82
2022/12/10 04:44:56;;;;;;;46.90;13.20;;;-1.20;99.90;;;;;;6161548;23;20017;-81
2022/12/10 04:47:26;;;;;;;45.67;14.20;;;-1.20;99.90;;;;;;6137258;23;20315;-81
2022/12/10 04:49:54;;;;;;;42.15;13.85;;;-1.40;99.90;;;;;;6136175;23;20028;-81
2022/12/10 04:52:22;;;;;;;43.78;13.60;;;-1.00;99.90;;;;;;6137969;23;20449;-81
2022/12/10 04:54:50;;;;;;;37.08;13.10;;;-3.70;99.90;;;;;;6138143;23;20009;-81
2022/12/10 04:57:18;;;;;;;44.90;14.15;;;-1.10;99.90;;;;;;6171068;23;20473;-81
2022/12/10 04:59:46;;;;;;;41.35;13.93;;;-1.20;99.90;;;;;;6161707;23;20020;-81
2022/12/10 05:02:14;;;;;;;44.22;13.75;;;-1.80;99.90;;;;;;6114004;23;20054;-81
2022/12/10 05:04:41;;;;;;;35.58;13.82;;;-0.10;99.90;;;;;;6112236;23;20053;-81
2022/12/10 05:07:09;;;;;;;45.65;14.27;;;-3.50;99.90;;;;;;6197902;23;20009;-81
2022/12/10 05:09:37;;;;;;;;;;;-0.40;99.90;;;;;;6161285;23;20073;-81
2022/12/10 05:12:05;;;;;;;35.13;11.63;;;-4.90;99.90;;;;;;6187909;23;19916;-81
2022/12/10 05:14:42;;;;;;;37.07;12.73;;;-3.00;99.90;;;;;;6151162;23;20288;-81
2022/12/10 05:17:09;;;;;;;35.63;12.55;;;-0.70;99.90;;;;;;6136327;23;20308;-81
2022/12/10 05:19:37;;;;;;;36.83;11.93;;;-1.00;99.90;;;;;;6162060;23;20024;-81
2022/12/10 05:24:52;;;;;;;33.17;11.82;;;-1.60;99.90;;;;;;6196318;23;20418;-81
2022/12/10 05:27:19;;;;;;;28.90;11.80;;;-1.20;99.90;;;;;;6197016;23;20013;-81
2022/12/10 05:29:47;;;;;;;33.63;11.68;;;-2.20;99.90;;;;;;6186412;23;20116;-81
2022/12/10 05:32:18;;;;;;;33.03;11.68;;;-1.90;99.90;;;;;;6162928;23;20016;-81
2022/12/10 05:34:46;;;;;;;31.88;11.55;;;;;;;;;;6113240;23;20021;-81
2022/12/10 05:37:13;;;;;;;34.20;11.73;;;-3.20;99.90;;;;;;6160541;23;20032;-81
2022/12/10 05:39:41;;;;;;;43.75;12.60;;;-1.20;99.90;;;;;;6138244;23;20025;-81
2022/12/10 05:42:09;;;;;;;35.90;12.40;;;-1.90;99.90;;;;;;6187667;23;20017;-81
2022/12/10 05:44:41;;;;;;;29.67;11.95;;;-1.20;99.90;;;;;;6160978;23;20021;-81
2022/12/10 05:47:12;;;;;;;38.63;12.68;;;-3.90;99.90;;;;;;6197494;23;20020;-81
2022/12/10 05:49:42;;;;;;;34.13;12.15;;;-1.20;99.90;;;;;;6196146;23;20020;-81
2022/12/10 05:52:17;;;;;;;35.03;12.53;;;-1.00;99.90;;;;;;6197080;23;20020;-81
2022/12/10 05:54:44;;;;;;;37.42;12.57;;;-1.70;99.90;;;;;;6137891;23;20009;-81
2022/12/10 05:57:14;;;;;;;38.25;12.48;;;-3.70;99.90;;;;;;6196393;23;20445;-81
2022/12/10 05:59:42;;;;;;;37.38;13.15;;;-1.20;99.90;;;;;;6162002;23;20020;-81
2022/12/10 06:02:20;;;;;;;37.60;14.88;;;-1.70;99.90;;;;;;6171741;23;20017;-81
2022/12/10 06:04:48;;;;;;;;;;;-4.20;99.90;;;;;;6171262;23;20021;-81
2022/12/10 06:07:18;;;;;;;51.42;16.60;;;;;;;;;;6171676;23;19920;-82
2022/12/10 06:09:46;;;;;;;45.13;16.80;;;-3.10;99.90;;;;;;6136030;23;20024;-81
2022/12/10 06:12:14;;;;;;;43.15;17.25;;;-0.50;99.90;;;;;;6136836;23;20013;-81
2022/12/10 06:14:41;;;;;;;43.80;17.08;;;-3.90;99.90;;;;;;6136811;23;20017;-81
2022/12/10 06:17:14;;;;;;;44.28;16.17;;;-1.20;99.90;;;;;;6195922;23;20024;-82
2022/12/10 06:19:55;;;;;;;;;;;;;;;;;;;;;
2022/12/10 06:22:29;;;;;;;;;;;-3.00;99.90;;;;;;6172763;23;20013;-81
2022/12/10 06:25:00;;;;;;;37.85;12.32;;;-2.70;99.90;;;;;;6160259;23;19916;-81
2022/12/10 06:27:31;;;;;;;35.75;12.02;;;-2.90;99.90;;;;;;6136710;23;20020;-81
2022/12/10 06:29:58;;;;;;;41.03;13.43;;;-1.60;99.90;;;;;;6160910;23;20457;-81
2022/12/10 06:32:26;;;;;;;32.75;13.05;;;-1.50;99.90;;;;;;6162458;23;20445;-81
2022/12/10 06:34:57;;;;;;;38.97;12.52;;;-0.70;99.90;;;;;;6162477;23;20323;-82
2022/12/10 06:37:25;;;;;;;44.97;13.90;;;-4.30;99.90;;;;;;6160120;23;20331;-82
2022/12/10 06:39:52;;;;;;;;;;;-1.00;99.90;;;;;;6187854;23;20354;-81
2022/12/10 06:42:23;;;;;;;33.30;11.77;;;-3.00;99.90;;;;;;6162088;23;19923;-81
2022/12/10 06:44:51;;;;;;;35.25;12.15;;;-0.40;99.90;;;;;;6160004;23;20322;-81
2022/12/10 06:47:22;;;;;;;30.70;12.85;;;-0.90;99.90;;;;;;6114235;23;20021;-81
2022/12/10 06:49:50;;;;;;;;;;;-1.10;99.90;;;;;;6160890;23;20017;-81
2022/12/10 06:52:17;;;;;;;33.97;11.27;;;-2.90;99.90;;;;;;6187299;23;19923;-81
2022/12/10 06:54:45;;;;;;;36.45;11.80;;;-1.60;99.90;;;;;;6162002;23;20020;-81
2022/12/10 06:57:13;;;;;;;31.88;11.45;;;-3.60;99.90;;;;;;6170368;23;20032;-81
2022/12/10 06:59:41;;;;;;;;;;;-3.50;99.90;;;;;;6138424;23;20013;-81
2022/12/10 07:02:13;;;;;;;39.03;12.10;;;-2.80;99.90;;;;;;6138211;23;19916;-81
2022/12/10 07:04:48;;;;;;;37.83;12.70;;;;;;;;;;6136069;23;20426;-81
2022/12/10 07:07:20;;;;;;;41.00;13.95;;;-3.10;99.90;;;;;;6173887;23;20017;-81
2022/12/10 07:09:55;;;;;;;43.08;13.82;;;-2.80;99.90;;;;;;6186292;23;20331;-81
2022/12/10 07:12:27;;;;;;;47.63;15.90;;;-1.40;99.90;;;;;;6114427;23;20013;-81
2022/12/10 07:15:03;;;;;;;32.97;13.75;;;-1.50;99.90;;;;;;6140005;23;20021;-81
2022/12/10 07:17:31;;;;;;;36.42;13.60;;;-3.00;99.90;;;;;;6137466;23;20017;-82
2022/12/10 07:20:02;;;;;;;38.95;14.20;;;-0.70;99.90;;;;;;6163053;23;20021;-81
2022/12/10 07:22:31;;;;;;;38.97;14.07;;;-1.70;99.90;;;;;;6173087;23;20326;-81
2022/12/10 07:25:01;;;;;;;40.90;14.68;;;-2.00;99.90;;;;;;6160060;23;20426;-81
2022/12/10 07:27:31;;;;;;;37.80;13.38;;;-2.90;99.90;;;;;;6148534;23;20021;-81
2022/12/10 07:30:02;;;;;;;33.50;13.73;;;-2.10;99.90;;;;;;6197422;23;20402;-81
2022/12/10 07:32:30;;;;;;;36.95;13.43;;;-3.00;99.90;;;;;;6188628;23;20013;-81
2022/12/10 07:35:00;;;;;;;32.42;13.70;;;-0.50;99.90;;;;;;6188623;23;20028;-81
2022/12/10 07:37:27;;;;;;;39.25;13.45;;;-1.30;99.90;;;;;;6197546;23;20016;-81
2022/12/10 07:40:05;;;;;;;38.13;13.88;;;-1.70;99.90;;;;;;6162919;23;20016;-81
2022/12/10 07:43:16;;;;;;;34.75;12.65;;;-2.80;99.90;;;;;;6163117;23;20024;-81
2022/12/10 07:45:47;;;;;;;35.80;12.30;;;-2.20;99.90;;;;;;6148945;23;20017;-81
2022/12/10 07:48:17;;;;;;;31.88;12.68;;;-1.00;99.90;;;;;;6163063;23;20017;-81
2022/12/10 07:50:55;;;;;;;33.45;13.32;;;-1.70;99.90;;;;;;6136704;23;20017;-81
2022/12/10 07:53:35;;;;;;;33.45;12.52;;;-1.70;99.90;;;;;;6198081;23;20013;-81
2022/12/10 07:56:03;;;;;;;37.35;12.32;;;-0.90;99.90;;;;;;6197680;23;20024;-81
2022/12/10 07:58:34;;;;;;;27.38;11.32;;;-3.00;99.90;;;;;;6137311;23;20021;-81
2022/12/10 08:01:16;;;;;;;31.35;11.68;;;-2.70;99.90;;;;;;6137778;23;20028;-81
2022/12/10 08:03:57;;;;;;;35.67;12.50;;;-3.00;99.90;;;;;;6172030;23;20017;-81
2022/12/10 08:06:28;;;;;;;31.85;12.18;;;-3.10;99.90;;;;;;6114875;23;20021;-81
2022/12/10 08:09:17;;;;;;;29.40;12.23;;;-1.90;99.90;;;;;;6160978;23;20017;-81
2022/12/10 08:12:17;;;;;;;33.47;12.30;;;-3.60;99.90;;;;;;6186972;23;20061;-81
2022/12/10 08:15:52;;;;;;;28.95;11.75;;;-3.50;99.90;;;;;;6146144;23;20025;-82
2022/12/10 08:18:39;;;;;;;;;;;;;;;;;;;;;
2022/12/10 08:22:17;;;;;;;34.20;12.10;;;-1.40;99.90;;;;;;6118014;23;20024;-82
2022/12/10 08:25:20;;;;;;;41.22;12.68;;;-1.50;99.90;;;;;;6148184;23;20036;-81
2022/12/10 08:28:36;;;;;;;33.58;12.57;;;-0.50;99.90;;;;;;6151158;23;20013;-81
2022/12/10 08:31:20;;;;;;;33.38;13.25;;;-2.50;99.90;;;;;;6135733;23;20017;-81
2022/12/10 08:34:25;;;;;;;33.25;12.48;;;-1.80;99.90;;;;;;6137835;23;20017;-82
2022/12/10 08:37:00;;;;;;;26.52;12.20;;;-1.40;99.90;;;;;;6124316;23;20020;-82
2022/12/10 08:40:09;;;;;;;41.58;13.80;;;-0.50;99.90;;;;;;6138141;23;20441;-80
2022/12/10 08:44:14;;;;;;;;;;;;;;;;;;;;;
2022/12/10 08:47:27;;;;;;;;;;;;;;;;;;;;;
2022/12/10 08:51:03;;;;;;;36.80;13.98;;;-3.20;99.90;;;;;;6039408;23;20030;-81
2022/12/10 08:54:42;;;;;;;;;;;;;;;;;;;;;
2022/12/10 08:58:17;;;;;;;39.53;14.77;;;-2.80;99.90;;;;;;5979574;23;20022;-81
2022/12/10 09:01:13;;;;;;;44.97;16.50;;;-1.70;99.90;;;;;;6047657;23;20019;-81
2022/12/10 09:03:41;;;;;;;38.95;16.33;;;-2.70;99.90;;;;;;6052787;23;20025;-82
2022/12/10 09:19:31;;;;;;;48.63;19.00;;;-1.70;99.90;;;;;;5981890;23;20460;-81
2022/12/10 09:22:03;;;;;;;50.05;17.70;;;-0.40;99.90;;;;;;6009740;23;20027;-81
2022/12/10 09:25:15;;;;;;;53.70;17.33;;;0.00;99.90;;;;;;5919478;24;20033;-81
2022/12/10 09:28:03;;;;;;;50.08;17.77;;;-2.00;99.90;;;;;;5917652;24;20032;-81
2022/12/10 09:31:32;;;;;;;50.13;16.73;;;-0.60;99.90;;;;;;5896895;24;20029;-82
2022/12/10 09:34:33;;;;;;;51.67;17.83;;;0.20;99.90;;;;;;5913242;24;20423;-83
2022/12/10 09:37:15;;;;;;;55.40;18.65;;;-0.60;99.90;;;;;;5926014;24;20021;-82
2022/12/10 09:40:16;;;;;;;62.28;19.27;;;-2.10;99.90;;;;;;5934022;23;20029;-81
2022/12/10 09:43:40;;;;;;;72.00;21.83;;;-0.50;99.90;;;;;;5986637;23;20032;-83
2022/12/10 09:47:36;;;;;;;62.15;20.55;;;-2.00;99.90;;;;;;5987663;23;20478;-82
2022/12/10 09:51:11;;;;;;;74.72;22.55;;;-0.30;99.90;;;;;;6097915;23;20029;-82
2022/12/10 09:54:07;;;;;;;79.88;21.48;;;-1.70;99.90;;;;;;6138543;23;20020;-82
2022/12/10 09:56:45;;;;;;;76.70;22.33;;;-0.50;99.90;;;;;;6161149;23;20457;-79
2022/12/10 09:59:24;;;;;;;84.37;23.13;;;1.00;99.90;;;;;;6148848;23;20013;-79
2022/12/10 10:02:19;;;;;;;73.75;21.50;;;-1.10;99.90;;;;;;6132832;23;20235;-78
2022/12/10 10:04:54;;;;;;;80.50;22.10;;;-0.80;99.90;;;;;;6131606;23;20017;-77
2022/12/10 10:07:30;;;;;;;72.25;19.88;;;-0.60;99.90;;;;;;6167570;23;20021;-77
2022/12/10 10:10:22;;;;;;;65.55;22.55;;;1.00;99.90;;;;;;6166202;23;20010;-78
2022/12/10 10:13:12;;;;;;;70.53;21.65;;;-0.50;99.90;;;;;;6108124;23;20453;-77
2022/12/10 10:15:45;;;;;;;61.28;21.10;;;1.30;99.90;;;;;;6108231;23;20025;-78
2022/12/10 10:18:53;;;;;;;61.58;20.00;;;-0.70;99.90;;;;;;6140452;23;20016;-78
2022/12/10 10:21:36;;;;;;;67.35;20.30;;;-0.30;99.90;;;;;;6156396;23;20014;-78
2022/12/10 10:24:16;;;;;;;;;;;;;;;;;;;;;
2022/12/10 10:26:54;;;;;;;88.03;36.92;;;-0.10;99.90;;;;;;6131870;23;20025;-77
2022/12/10 10:29:34;;;;;;;82.53;29.23;;;1.70;99.90;;;;;;6123391;23;20018;-77
2022/12/10 10:32:21;;;;;;;67.07;25.40;;;2.10;99.90;;;;;;6132258;23;20017;-77
2022/12/10 10:34:54;;;;;;;47.42;18.98;;;0.30;99.90;;;;;;6166299;23;20010;-77
2022/12/10 10:37:28;;;;;;;47.42;17.45;;;2.10;99.90;;;;;;6140390;23;20017;-77
2022/12/10 10:39:59;;;;;;;52.25;17.63;;;2.10;99.90;;;;;;6166931;23;20287;-77
2022/12/10 10:42:47;;;;;;;50.58;16.33;;;1.90;99.90;;;;;;6144582;23;20014;-76
2022/12/10 10:45:41;;;;;;;39.72;16.75;;;2.10;99.90;;;;;;6166771;23;20036;-76
2022/12/10 10:48:19;;;;;;;46.78;16.88;;;0.70;99.90;;;;;;6168579;23;20024;-77
2022/12/10 10:51:04;;;;;;;46.05;15.65;;;-0.60;99.90;;;;;;6132618;23;20028;-77
2022/12/10 10:53:55;;;;;;;35.55;14.38;;;0.80;99.90;;;;;;6133640;23;20013;-81
2022/12/10 11:01:03;;;;;;;31.13;12.63;;;3.10;99.90;;;;;;6153486;23;20025;-78
2022/12/10 11:04:14;;;;;;;30.42;11.80;;;2.80;99.90;;;;;;6139169;23;20020;-79
2022/12/10 11:07:14;;;;;;;34.90;11.70;;;2.90;99.90;;;;;;6164367;23;20028;-78
2022/12/10 11:11:02;;;;;;;29.73;12.23;;;1.30;99.90;;;;;;6187675;23;20016;-81
2022/12/10 11:14:45;;;;;;;33.40;11.52;;;-0.50;99.90;;;;;;6078264;23;20031;-79
2022/12/10 11:17:41;;;;;;;27.00;11.18;;;3.20;99.90;;;;;;6073525;23;20018;-79
2022/12/10 11:20:57;;;;;;;27.08;11.40;;;1.10;99.90;;;;;;6068955;23;20034;-80
2022/12/10 11:23:46;;;;;;;29.00;9.63;;;0.40;99.90;;;;;;6066243;23;20026;-79
2022/12/10 11:26:55;;;;;;;;;;;;;;;;;;;;;
2022/12/10 11:30:36;;;;;;;;;;;;;;;;;;;;;
2022/12/10 11:34:04;;;;;;;24.30;9.20;;;2.00;99.90;;;;;;6045847;23;20025;-80
2022/12/10 11:40:47;;;;;;;19.85;7.30;;;1.30;99.90;;;;;;6098082;23;20025;-78
2022/12/10 11:43:47;;;;;;;16.45;7.88;;;1.20;99.90;;;;;;6131906;23;20079;-79
2022/12/10 11:46:44;;;;;;;21.17;8.48;;;2.90;99.90;;;;;;6125765;23;20018;-80
2022/12/10 11:49:35;;;;;;;17.13;7.43;;;1.30;99.90;;;;;;6079751;23;20029;-78
2022/12/10 11:52:48;;;;;;;19.38;8.30;;;1.30;99.90;;;;;;6100792;23;20018;-78
2022/12/10 11:55:33;;;;;;;14.90;6.90;;;1.30;99.90;;;;;;6126861;23;20018;-78
2022/12/10 11:58:41;;;;;;;15.68;6.72;;;1.40;99.90;;;;;;6101900;23;20021;-79
2022/12/10 12:01:16;;;;;;;15.32;6.82;;;1.50;99.90;;;;;;6170631;23;20021;-78
2022/12/10 12:03:56;;;;;;;16.70;7.32;;;1.60;99.90;;;;;;6170822;23;20020;-77
2022/12/10 12:06:32;;;;;;;19.70;7.55;;;1.50;99.90;;;;;;6162756;23;20461;-76
2022/12/10 12:09:10;;;;;;;16.23;7.00;;;1.60;99.90;;;;;;6198240;23;20024;-76
2022/12/10 12:12:05;;;;;;;14.38;5.10;;;0.70;99.90;;;;;;6136483;23;20017;-68
2022/12/10 12:14:42;;;;;;;11.77;4.70;;;1.60;99.90;;;;;;6162637;23;20013;-78
2022/12/10 12:17:25;;;;;;;10.52;4.35;;;1.70;99.90;;;;;;6197026;23;20013;-76
2022/12/10 12:19:57;;;;;;;13.70;4.18;;;1.70;99.90;;;;;;6198184;23;20017;-76
2022/12/10 12:22:36;;;;;;;14.52;5.03;;;1.70;99.90;;;;;;6162470;23;20027;-76
2022/12/10 12:25:22;;;;;;;13.52;4.40;;;1.80;99.90;;;;;;6196924;23;20315;-77
2022/12/10 12:27:59;;;;;;;12.10;4.00;;;1.80;99.90;;;;;;6198207;23;20316;-76
2022/12/10 12:30:31;;;;;;;8.87;3.83;;;1.80;99.90;;;;;;6196139;23;20012;-79
2022/12/10 12:33:28;;;;;;;7.30;3.70;;;4.10;99.90;;;;;;6138726;23;20239;-77
2022/12/10 12:36:00;;;;;;;11.18;4.43;;;1.90;99.90;;;;;;6188144;23;20016;-76
2022/12/10 12:38:40;;;;;;;16.55;4.70;;;3.70;99.90;;;;;;6196703;23;20032;-77
2022/12/10 12:41:33;;;;;;;12.93;4.45;;;2.00;99.90;;;;;;6198654;23;20020;-78
2022/12/10 12:44:14;;;;;;;9.85;3.50;;;1.90;99.90;;;;;;6160893;23;20028;-78
2022/12/10 12:46:46;;;;;;;8.68;3.33;;;1.90;99.90;;;;;;6198261;23;20024;-79
2022/12/10 12:49:23;;;;;;;7.78;2.85;;;2.90;99.90;;;;;;6137525;23;20032;-80
2022/12/10 12:52:13;;;;;;;4.97;2.55;;;3.10;99.90;;;;;;6160869;23;20013;-80
2022/12/10 12:54:41;;;;;;;9.25;2.70;;;2.00;99.90;;;;;;6198055;23;20009;-79
2022/12/10 12:57:32;;;;;;;7.47;3.20;;;2.10;99.90;;;;;;6170855;23;20013;-80
2022/12/10 13:00:17;;;;;;;5.28;2.45;;;2.10;99.90;;;;;;6187051;23;20095;-78
2022/12/10 13:02:51;;;;;;;;;;;2.20;99.90;;;;;;6173584;23;20013;-78
2022/12/10 13:05:29;;;;;;;7.15;2.67;;;2.20;99.90;;;;;;6161991;23;19927;-78
2022/12/10 13:08:19;;;;;;;4.47;2.22;;;2.20;99.90;;;;;;6139158;23;20016;-78
2022/12/10 13:10:59;;;;;;;5.05;2.10;;;2.30;99.90;;;;;;6160573;23;20028;-81
2022/12/10 13:13:38;;;;;;;8.50;1.80;;;2.30;99.90;;;;;;6197686;23;20013;-78
2022/12/10 13:16:34;;;;;;;5.17;2.00;;;4.30;99.90;;;;;;6172084;23;20009;-79
2022/12/10 13:19:19;;;;;;;4.03;1.85;;;2.30;99.90;;;;;;6197812;23;20021;-76
2022/12/10 13:22:07;;;;;;;6.53;1.88;;;2.30;99.90;;;;;;6197700;23;20024;-77
2022/12/10 13:24:40;;;;;;;5.38;1.75;;;2.40;99.90;;;;;;6170733;23;20020;-77
2022/12/10 13:27:11;;;;;;;5.78;2.17;;;3.10;99.90;;;;;;6198103;23;20013;-77
2022/12/10 13:29:59;;;;;;;7.90;2.63;;;2.50;99.90;;;;;;6196393;23;20021;-77
2022/12/10 13:32:30;;;;;;;11.88;2.92;;;2.50;99.90;;;;;;6171832;23;20020;-77
2022/12/10 13:35:16;;;;;;;7.72;2.95;;;4.10;99.90;;;;;;6172563;23;20031;-77
2022/12/10 13:37:49;;;;;;;6.45;1.52;;;2.80;99.90;;;;;;6160592;23;20028;-77
2022/12/10 13:46:31;;;;;;;7.07;2.50;;;2.30;99.90;;;;;;6197425;23;20017;-78
2022/12/10 13:49:06;;;;;;;5.32;2.13;;;2.30;99.90;;;;;;6171678;23;20017;-79
2022/12/10 13:51:48;;;;;;;10.57;4.40;;;4.60;99.90;;;;;;6135551;23;20017;-78
2022/12/10 13:54:37;;;;;;;6.63;3.10;;;2.20;99.90;;;;;;6197585;23;20009;-78
2022/12/10 13:57:21;;;;;;;9.38;2.35;;;2.10;99.90;;;;;;6170577;23;20020;-78
2022/12/10 14:00:07;;;;;;;7.68;2.40;;;2.10;99.90;;;;;;6171017;23;20020;-78
2022/12/10 14:03:09;;;;;;;5.72;2.40;;;4.10;99.90;;;;;;6188063;23;20018;-78
2022/12/10 14:06:04;;;;;;;4.17;1.87;;;2.10;99.90;;;;;;6187386;23;20411;-78
2022/12/10 14:08:37;;;;;;;4.70;1.95;;;2.10;99.90;;;;;;6136562;23;20239;-78
2022/12/10 14:11:21;;;;;;;4.30;1.95;;;2.30;99.90;;;;;;6196277;23;20288;-78
2022/12/10 14:13:54;;;;;;;7.28;2.65;;;3.30;99.90;;;;;;6161588;23;20028;-77
2022/12/10 14:16:26;;;;;;;5.57;2.33;;;0.40;99.90;;;;;;6169933;23;20020;-78
2022/12/10 14:19:02;;;;;;;9.95;2.35;;;4.90;99.90;;;;;;6197715;23;20013;-79
2022/12/10 14:21:46;;;;;;;7.15;2.25;;;2.30;99.90;;;;;;6197605;23;20040;-77
2022/12/10 14:24:39;;;;;;;6.28;2.15;;;4.20;99.90;;;;;;6195926;23;20036;-79
2022/12/10 14:27:16;;;;;;;6.55;2.22;;;2.70;99.90;;;;;;6162744;23;20017;-79
2022/12/10 14:30:14;;;;;;;7.68;2.60;;;4.10;99.90;;;;;;6196427;23;20039;-79
2022/12/10 14:32:49;;;;;;;6.43;2.80;;;3.40;99.90;;;;;;6151161;23;20442;-79
2022/12/10 14:35:24;;;;;;;15.25;5.65;;;4.00;99.90;;;;;;6161781;23;20013;-80
2022/12/10 14:41:33;;;;;;;10.40;3.60;;;3.50;99.90;;;;;;6172131;23;20020;-80
2022/12/10 14:44:18;;;;;;;9.57;3.80;;;3.00;99.90;;;;;;6148889;23;20009;-82
2022/12/10 14:47:17;;;;;;;12.23;6.80;;;2.70;99.90;;;;;;6147054;23;20039;-82
2022/12/10 14:49:54;;;;;;;10.82;4.13;;;1.90;99.90;;;;;;6135894;23;20284;-80
2022/12/10 14:52:41;;;;;;;12.95;5.07;;;3.70;99.90;;;;;;6136538;23;20083;-80
2022/12/10 14:55:32;;;;;;;15.65;5.05;;;3.70;99.90;;;;;;6165245;23;20029;-81
2022/12/10 14:58:16;;;;;;;13.38;5.70;;;1.80;99.90;;;;;;6148932;23;20020;-81
2022/12/10 15:01:16;;;;;;;40.53;19.40;;;3.60;99.90;;;;;;6166983;23;20295;-81
2022/12/10 15:03:49;;;;;;;30.63;13.50;;;3.20;99.90;;;;;;6136320;23;20025;-80
2022/12/10 15:06:29;;;;;;;21.73;10.60;;;0.70;99.90;;;;;;6147342;23;20017;-81
2022/12/10 15:09:34;;;;;;;;;;;;;;;;;;;;;
2022/12/10 15:14:14;;;;;;;32.22;13.30;;;3.40;99.90;;;;;;6070847;23;20026;-81
2022/12/10 15:21:40;;;;;;;45.63;17.42;;;1.30;99.90;;;;;;6036368;23;20033;-83